• Join FlightAware (Why Join?)
  • Login
  • US Flag 
05:32AM EST


 

Airport Tracker/Info


-or-


 

Live Flight TrackerFlight Track Log ✈ ASQ6041 ✈ 12-Sep-2013 ✈ KDEN - KLNK

Flight Track Log - Related Links

Times and Time Zones

All times are in EDT time to prevent confusion due to time zone crossing. See the ASQ6041 flight status page for this flight to view local times or setup timezone preferences in your user account.

Time Position Orientation Groundspeed Altitude Reporting Facility
EDT Latitude Longitude Course Direction KTS MPH feet Rate Location/Type
12:15PM 39.8833 -104.6000 80° East 171 197 6,400  Level Denver TRACON
12:16PM 39.8833 -104.5333 90° East 230 265 7,900 1,740 Climbing Denver TRACON
12:17PM 39.9167 -104.4500 62° Northeast 274 315 9,900 1,560 Climbing Denver TRACON
12:18PM 39.9333 -104.3167 81° East 327 376 11,300 1,500 Climbing Denver TRACON
12:19PM 39.9461 -104.1416 85° East  Level Estimated
12:19PM 39.9225 -104.2575 103° East 330 380 12,400  Level Denver Center
12:20PM 39.9668 -104.0086 80° East  Level Estimated
12:20PM 39.9136 -104.1375 95° East 335 386 14,400  Level Denver Center
12:21PM 39.9044 -104.0153 96° East 339 390 16,400 1,800 Climbing Denver Center
12:22PM 39.8947 -103.8850 96° East 338 389 18,200 1,380 Climbing Denver Center
12:23PM 39.8856 -103.7622 96° East 343 395 19,300 960 Climbing Denver Center
12:24PM 39.9008 -103.6300 81° East 358 412 20,400 960 Climbing Denver Center
12:25PM 39.9300 -103.4661 77° East 384 442 21,600 1,080 Climbing Denver Center
12:26PM 39.9550 -103.3269 77° East 395 455 22,700 960 Climbing Denver Center
12:27PM 39.9792 -103.1844 77° East 402 463 23,700 1,080 Climbing Denver Center
12:28PM 40.0100 -103.0125 77° East 406 467 25,000 1,080 Climbing Denver Center
12:29PM 40.0356 -102.8661 77° East 414 476 26,000 960 Climbing Denver Center
12:30PM 40.0614 -102.7178 77° East 419 482 27,000 480 Climbing Denver Center
12:31PM 40.0883 -102.5597 77° East 434 499 27,000  Level Denver Center
12:32PM 40.1194 -102.3756 77° East 461 531 27,000  Level Denver Center
12:33PM 40.1461 -102.2142 78° East 474 545 27,000  Level Denver Center
12:34PM 40.1778 -102.0211 78° East 485 558 27,000  Level Denver Center
12:35PM 40.2064 -101.8594 77° East 481 554 27,000  Level Denver Center
12:36PM 40.2322 -101.6953 78° East 482 555 27,000  Level Denver Center
12:38PM 40.2628 -101.5058 78° East 479 551 27,000  Level Denver Center
12:39PM 40.2892 -101.3417 78° East 481 554 27,000  Level Denver Center
12:40PM 40.3192 -101.1514 78° East 480 552 27,000  Level Denver Center
12:41PM 40.3444 -100.9872 79° East 482 555 27,000  Level Denver Center
12:42PM 40.3744 -100.7967 78° East 482 555 27,000  Level Denver Center
12:43PM 40.3986 -100.6319 79° East 484 557 27,000  Level Denver Center
12:44PM 40.4283 -100.4406 78° East 483 556 27,000  Level Denver Center
12:45PM 40.4569 -100.2478 79° East 485 558 27,000  Level Denver Center
12:46PM 40.4811 -100.0819 79° East 485 558 27,000  Level Denver Center
12:47PM 40.5058 -99.9156 79° East 487 560 27,000  Level Denver Center
12:48PM 40.5339 -99.7228 79° East 484 557 27,000  Level Denver Center
12:49PM 40.5592 -99.5461 79° East 489 563 27,000  Level Denver Center
12:50PM 40.5847 -99.3717 79° East 488 562 27,000  Level Denver Center
12:51PM 40.6089 -99.1969 80° East 489 563 27,000  Level Denver Center
12:52PM 40.6331 -99.0228 80° East 490 564 27,000  Level Minneapolis Center
12:53PM 40.6567 -98.8475 80° East 491 565 27,000  Level Minneapolis Center
12:54PM 40.6794 -98.6731 80° East 488 562 27,000 -60 Level Minneapolis Center
12:55PM 40.7078 -98.4656 80° East 486 559 26,900 -540 Descending Minneapolis Center
12:56PM 40.7303 -98.2933 80° East 482 555 26,000 -1,560 Descending Minneapolis Center
12:57PM 40.7528 -98.1275 80° East 469 540 23,700 -2,340 Descending Minneapolis Center
12:58PM 40.7728 -97.9700 80° East 447 514 21,200 -2,640 Descending Minneapolis Center
12:59PM 40.7683 -97.8031 92° East 413 475 18,400 -2,400 Descending Minneapolis Center
12:59PM 40.7922 -97.8181 335° Northwest 430 495 18,700 -2,040 Climbing Minneapolis Center
01:00PM 40.7853 -97.6836 94° East 391 450 16,800 -2,640 Descending Minneapolis Center
01:00PM 40.8128 -97.6467 45° Northeast 402 463 16,000 -2,460 Descending Minneapolis Center
01:01PM 40.8031 -97.5417 97° East 399 459 14,300 -2,460 Descending Minneapolis Center
01:01PM 40.8186 -97.5017 63° Northeast 400 460 13,500 -2,640 Descending Minneapolis Center
01:02PM 40.7867 -97.3892 111° Southeast 388 447 11,700 -2,040 Descending Minneapolis Center
01:02PM 40.8028 -97.3628 51° Northeast 388 447 11,400 -1,320 Descending Minneapolis Center
01:03PM 40.7756 -97.2639 110° East 339 390 10,400 -1,200 Descending Minneapolis Center
01:03PM 40.7922 -97.2500 32° Northeast 358 412 10,200 -1,200 Descending Minneapolis Center
01:04PM 40.7675 -97.1547 109° East 287 330 9,200 -1,560 Descending Minneapolis Center
01:04PM 40.7803 -97.1225 62° Northeast 301 346 8,600 -1,800 Descending Minneapolis Center
01:05PM 40.7592 -97.0456 110° East 282 325 7,400 -1,680 Descending Minneapolis Center
01:05PM 40.7714 -97.0208 57° Northeast 285 328 6,900 -1,740 Descending Minneapolis Center
01:06PM 40.7558 -96.9469 106° East 272 313 5,700 -1,800 Descending Minneapolis Center
01:06PM 40.7706 -96.9231 51° Northeast 271 312 5,100 -1,620 Descending Minneapolis Center
01:07PM 40.7589 -96.8586 103° East 237 273 4,100 -1,500 Descending Minneapolis Center
01:07PM 40.7708 -96.8358 55° Northeast 257 296 3,600 -1,140 Descending Minneapolis Center
01:08PM 40.7592 -96.7897 108° East 147 169 3,000 -1,080 Descending Minneapolis Center
01:08PM 40.7761 -96.7833 16° North 193 222 2,500 -1,200 Descending Minneapolis Center
01:09PM 40.7886 -96.7567 58° Northeast 141 162 1,800 -600 Descending Minneapolis Center
01:09PM 40.8047 -96.7436 32° Northeast 165 190 1,900 180 Climbing Minneapolis Center